Southern, LA

8:22 AM CST on December 27, 2014 (GMT -0600)
Hammond Municipal | Change Station
CLOSE
Current Station
Airport
Location: Hammond,
Elevation: 43 ft
Nearby Weather Stations
Active Advisory: Areal Flood Watch

Elev 43 ft 30.52 °N, 90.42 °W | Updated 10 days ago

Overcast
Overcast
72 °F
Feels Like 72 °F
N
8
Wind Variable Wind from SE
Gusts 11 mph

Today
High -- | Low -- °F
--% Chance of Precip.
Yesterday
High -- | Low -- °F
Precip. -- in
6:59 AM 5:11 PM
Waxing Crescent, 37% visible
Pressure 30.28 in
Visibility 10.0 miles
Clouds Clear
Dew Point 66 °F
Humidity 83%
Rainfall 0.00 in
Snow Depth Not available.
UV 0 out of 12
Pollen .60 out of 12
Air Quality Not available.
Flu Activity Not available.
METAR KHDC 171150Z AUTO 00000KT 10SM CLR 01/00 A3028 RMK AO2

More Conditions Fewer Conditions

Pressure 30.28 in
Visibility 10.0 miles
Clouds Clear
Dew Point 66 °F
Humidity 83%
Rainfall 0.00 in
Snow Depth Not available.
UV 0 out of 12
Pollen .60 out of 12
Air Quality Not available.
Flu Activity Not available.
METAR KHDC 171150Z AUTO 00000KT 10SM CLR 01/00 A3028 RMK AO2

More Conditions Fewer Conditions

Nowcast | as of 7:50 am CST on December 27, 2014

At 742 am CST...National Weather Service Doppler radar indicated a cluster of showers producing very heavy rain. These showers were located from Saint James to Assumption parishes...moving northeast at 35 mph. This shower will be near Sorrento at 750 am CST... Reserve at 755 am CST... LaPlace at 800 am CST... Baton Rouge at 805 am CST... Whitehall at 810 am CST... These showers may bring rainfall rates of up to a half an inch per hour. For additional information...visit our web site at www.Weather.Gov/neworleans

×

10-Day Weather Forecast

Almanac

Astronomy

Dec. 27, 2014 Rise Set
Actual Time
Civil Twilight
Nautical Twilight
Astronomical Twilight
Moon
Length of Visible Light
Length of Day
Tomorrow will be .
, % of the Moon is Illuminated

Today's Extremes

State Highs State Lows

Community

WunderPhotos

Upload Photos

1,780,916 photos uploaded!

WunderBlogs® & News

Nearby

Air Quality

  Air Quality AQ Index Pollutant
Not available.

Snow Depth

Station Depth Elevation

Earthquake Activity

City Distance Mag. Time & Date
Minimum magnitude displayed is 2.5.

Coastal Water Temperatures

Place Temperature

Nearby Weather Stations